Time;durP1;ratioP1;P1;durP2;ratioP2;P2;SDS_P1;SDS_P2;PMS_P1;PMS_P2;Temp;Humidity;BMP_temperature;BMP_pressure;BME280_temperature;BME280_humidity;BME280_pressure;Samples;Min_cycle;Max_cycle;Signal;HPM_P1;HPM_P2
2022/05/30 19:36:23;;;;;;;;;2.00;2.00;;;;;;;;4975072;27;4379368;-79
2022/05/30 19:38:48;;;;;;;;;3.25;3.25;;;;;;;;5093201;27;47171;-78
2022/05/30 19:41:14;;;;;;;;;2.50;2.50;;;;;;;;5098192;27;47256;-79
2022/05/30 19:43:41;;;;;;;;;4.75;4.50;;;;;;;;5097067;27;48498;-78
2022/05/30 19:46:08;;;;;;;;;2.50;2.50;;;;;;;;5092221;27;47762;-79
2022/05/30 19:48:33;;;;;;;;;3.00;3.00;;;;;;;;5085530;27;47056;-76
2022/05/30 19:50:59;;;;;;;;;3.00;3.00;;;;;;;;5111312;27;46935;-77
2022/05/30 19:53:25;;;;;;;;;2.00;2.00;;;;;;;;5096545;27;47010;-83
2022/05/30 19:55:50;;;;;;;;;3.50;2.25;;;;;;;;5109933;27;46879;-77
2022/05/30 19:58:16;;;;;;;;;4.50;3.75;;;;;;;;5116503;27;46841;-79
2022/05/30 20:00:42;;;;;;;;;5.00;5.00;;;;;;;;5086226;27;46810;-77
2022/05/30 20:03:08;;;;;;;;;3.00;2.50;;;;;;;;5091207;27;47393;-76
2022/05/30 20:05:34;;;;;;;;;4.50;2.50;;;;;;;;5096135;27;47011;-78
2022/05/30 20:07:59;;;;;;;;;3.00;2.75;;;;;;;;5077726;27;46944;-76
2022/05/30 20:10:55;;;;;;;;;4.75;4.75;;;;;;;;5095441;27;46971;-82
2022/05/30 20:13:21;;;;;;;;;5.25;4.00;;;;;;;;5095458;27;47187;-84
2022/05/30 20:15:46;;;;;;;;;7.25;6.75;;;;;;;;5083976;27;47024;-81
2022/05/30 20:18:14;;;;;;;;;4.00;4.00;;;;;;;;5067160;28;47900;-81
2022/05/30 20:20:39;;;;;;;;;7.00;6.00;;;;;;;;5073383;27;47155;-81
2022/05/30 20:23:07;;;;;;;;;5.00;3.25;;;;;;;;5072630;28;46794;-81
2022/05/30 20:25:40;;;;;;;;;5.00;5.00;;;;;;;;5077254;27;47173;-80
2022/05/30 20:28:06;;;;;;;;;5.75;5.75;;;;;;;;5062181;27;47050;-83
2022/05/30 20:30:31;;;;;;;;;7.75;6.00;;;;;;;;5073239;28;46865;-80
2022/05/30 20:32:56;;;;;;;;;5.75;5.00;;;;;;;;5070931;28;46788;-80
2022/05/30 20:35:52;;;;;;;;;;;;;;;;;;;;;
2022/05/30 20:38:20;;;;;;;;;8.00;5.75;;;;;;;;5063260;28;77021;-80
2022/05/30 20:43:33;;;;;;;;;5.00;5.00;;;;;;;;5071257;28;47130;-77
2022/05/30 20:45:58;;;;;;;;;7.00;7.00;;;;;;;;5072591;27;46960;-78
2022/05/30 20:48:28;;;;;;;;;6.00;4.00;;;;;;;;5072640;28;48476;-78
2022/05/30 20:50:53;;;;;;;;;6.25;5.50;;;;;;;;5072648;28;46867;-78
2022/05/30 20:53:19;;;;;;;;;7.75;5.00;;;;;;;;5074103;28;46715;-79
2022/05/30 20:55:44;;;;;;;;;5.00;4.00;;;;;;;;5061633;27;47254;-80
2022/05/30 20:58:10;;;;;;;;;4.00;4.00;;;;;;;;5066636;27;48474;-79
2022/05/30 21:00:37;;;;;;;;;5.00;5.00;;;;;;;;5059582;28;48138;-80
2022/05/30 21:03:02;;;;;;;;;5.75;5.75;;;;;;;;5068695;27;47171;-80
2022/05/30 21:05:28;;;;;;;;;5.75;4.25;;;;;;;;5080227;27;47097;-82
2022/05/30 21:07:53;;;;;;;;;6.00;5.25;;;;;;;;5072435;28;48323;-82
2022/05/30 21:10:23;;;;;;;;;5.75;5.75;;;;;;;;5071744;28;47063;-82
2022/05/30 21:12:49;;;;;;;;;4.25;4.25;;;;;;;;5075221;28;47064;-83
2022/05/30 21:15:14;;;;;;;;;6.25;5.00;;;;;;;;5087199;28;29440;-83
2022/05/30 21:17:49;;;;;;;;;5.25;5.25;;;;;;;;5090424;28;29273;-84
2022/05/30 21:20:17;;;;;;;;;4.50;3.00;;;;;;;;5085046;27;29603;-83
2022/05/30 21:22:45;;;;;;;;;6.25;6.00;;;;;;;;5075713;28;29602;-84
2022/05/30 21:25:10;;;;;;;;;5.00;5.00;;;;;;;;5068572;28;46828;-83
2022/05/30 21:27:36;;;;;;;;;6.75;5.75;;;;;;;;5074643;28;30670;-83
2022/05/30 21:30:03;;;;;;;;;8.00;7.00;;;;;;;;5070354;27;29820;-83
2022/05/30 21:32:28;;;;;;;;;6.25;6.25;;;;;;;;5075186;28;29326;-83
2022/05/30 21:34:56;;;;;;;;;4.25;4.25;;;;;;;;5076385;28;29639;-83
2022/05/30 21:37:21;;;;;;;;;5.00;5.00;;;;;;;;5074953;28;30525;-83
2022/05/30 21:39:46;;;;;;;;;6.00;6.00;;;;;;;;5076026;28;30649;-83
2022/05/30 21:42:12;;;;;;;;;6.75;5.00;;;;;;;;5076664;28;29689;-82
2022/05/30 21:44:38;;;;;;;;;4.25;4.00;;;;;;;;5075757;28;29434;-83
2022/05/30 21:47:04;;;;;;;;;4.00;4.00;;;;;;;;5076202;28;29402;-83
2022/05/30 21:49:29;;;;;;;;;5.50;5.50;;;;;;;;5076552;28;29455;-83
2022/05/30 21:51:54;;;;;;;;;6.25;5.75;;;;;;;;5076305;28;29379;-83
2022/05/30 21:54:20;;;;;;;;;6.00;6.00;;;;;;;;5076182;28;29341;-83
2022/05/30 21:56:47;;;;;;;;;5.25;5.25;;;;;;;;5074829;28;29497;-83
2022/05/30 21:59:13;;;;;;;;;6.00;5.75;;;;;;;;5074459;28;29406;-83
2022/05/30 22:01:38;;;;;;;;;5.00;4.00;;;;;;;;5069783;28;29392;-83
2022/05/30 22:04:05;;;;;;;;;6.00;6.00;;;;;;;;5069066;28;29440;-83
2022/05/30 22:06:30;;;;;;;;;5.25;4.75;;;;;;;;5088562;28;29680;-84
2022/05/30 22:08:56;;;;;;;;;4.75;3.75;;;;;;;;5085913;27;29424;-83
2022/05/30 22:11:22;;;;;;;;;5.00;4.75;;;;;;;;5078076;28;29509;-83
2022/05/30 22:13:48;;;;;;;;;8.00;8.00;;;;;;;;5096576;27;29577;-83
2022/05/30 22:16:18;;;;;;;;;12.25;9.25;;;;;;;;5077527;28;31807;-83
2022/05/30 22:18:44;;;;;;;;;12.50;12.25;;;;;;;;5078006;27;30148;-83
2022/05/30 22:21:09;;;;;;;;;15.50;13.50;;;;;;;;5076089;27;29466;-83
2022/05/30 22:23:34;;;;;;;;;17.75;12.75;;;;;;;;5096533;27;29462;-83
2022/05/30 22:26:09;;;;;;;;;19.50;17.25;;;;;;;;5077467;27;31697;-83
2022/05/30 22:28:34;;;;;;;;;20.75;16.00;;;;;;;;5077797;28;29892;-83
2022/05/30 22:31:00;;;;;;;;;21.75;18.00;;;;;;;;5095944;27;29586;-83
2022/05/30 22:33:26;;;;;;;;;28.00;22.75;;;;;;;;5095217;28;29426;-82
2022/05/30 22:35:53;;;;;;;;;21.75;18.75;;;;;;;;5091641;28;30212;-83
2022/05/30 22:38:18;;;;;;;;;22.50;19.00;;;;;;;;5085140;28;29572;-84
2022/05/30 22:40:45;;;;;;;;;32.75;20.25;;;;;;;;5070852;28;29607;-85
2022/05/30 22:43:11;;;;;;;;;27.75;22.25;;;;;;;;5077715;28;29706;-85
2022/05/30 22:45:37;;;;;;;;;27.50;21.50;;;;;;;;5078537;27;29736;-85
2022/05/30 22:48:03;;;;;;;;;22.50;18.50;;;;;;;;5107962;27;29414;-84
2022/05/30 22:50:31;;;;;;;;;25.25;22.00;;;;;;;;5076994;28;29545;-84
2022/05/30 22:52:57;;;;;;;;;19.50;17.25;;;;;;;;5077826;28;29427;-84
2022/05/30 22:55:24;;;;;;;;;20.75;18.00;;;;;;;;5095739;28;29612;-84
2022/05/30 22:57:50;;;;;;;;;25.00;20.75;;;;;;;;5077780;28;30623;-84
2022/05/30 23:00:18;;;;;;;;;24.50;21.00;;;;;;;;5095047;28;29277;-84
2022/05/30 23:02:43;;;;;;;;;17.50;16.25;;;;;;;;5094799;27;29624;-84
2022/05/30 23:05:09;;;;;;;;;21.25;16.75;;;;;;;;5095532;27;29451;-84
2022/05/30 23:07:35;;;;;;;;;18.00;16.00;;;;;;;;5077483;28;30481;-84
2022/05/30 23:10:01;;;;;;;;;17.00;15.25;;;;;;;;5077007;28;29482;-84
2022/05/30 23:12:26;;;;;;;;;19.00;16.00;;;;;;;;5077517;28;29368;-84
2022/05/30 23:14:51;;;;;;;;;15.00;14.25;;;;;;;;5095176;27;29536;-83
2022/05/30 23:17:19;;;;;;;;;14.25;14.25;;;;;;;;5077301;28;29902;-83
2022/05/30 23:19:51;;;;;;;;;12.75;12.25;;;;;;;;5099473;27;29441;-84
2022/05/30 23:22:17;;;;;;;;;16.00;13.50;;;;;;;;5085958;28;29536;-84
2022/05/30 23:24:43;;;;;;;;;11.00;10.25;;;;;;;;5095434;27;29324;-84
2022/05/30 23:27:09;;;;;;;;;16.50;13.50;;;;;;;;5095714;28;29454;-84
2022/05/30 23:29:35;;;;;;;;;15.50;14.50;;;;;;;;5095334;27;29580;-82
2022/05/30 23:32:01;;;;;;;;;14.50;12.25;;;;;;;;5073268;28;29314;-84
2022/05/30 23:34:26;;;;;;;;;14.75;11.75;;;;;;;;5076778;28;29589;-84
2022/05/30 23:36:52;;;;;;;;;11.50;10.25;;;;;;;;5095326;27;29331;-84
2022/05/30 23:39:17;;;;;;;;;15.75;12.50;;;;;;;;5090484;28;29343;-84
2022/05/30 23:44:36;;;;;;;;;12.00;9.25;;;;;;;;5091583;28;29286;-83
2022/05/30 23:47:01;;;;;;;;;9.00;9.00;;;;;;;;5098257;27;29261;-82
2022/05/30 23:49:26;;;;;;;;;8.00;7.00;;;;;;;;5100335;27;29558;-83
2022/05/30 23:54:55;;;;;;;;;7.75;7.75;;;;;;;;5095039;28;29348;-83
2022/05/30 23:57:20;;;;;;;;;8.75;7.25;;;;;;;;5095200;28;29473;-83
2022/05/30 23:59:46;;;;;;;;;7.00;5.00;;;;;;;;5094506;28;29245;-82
